Time,TemperatureF,DewpointF,PressureIn,WindDirection,WindDirectionDegrees,WindSpeedMPH,WindSpeedGustMPH,Humidity,HourlyPrecipIn,Conditions,Clouds,dailyrainin,SoftwareType,DateUTC
2013-10-25 00:01:00,56.1,33.4,29.97,West,260,0.0,0.0,42,0.00,,---,0.00,VWS V14.01,2013-10-25 07:01:00,
2013-10-25 00:06:00,55.6,32.9,29.97,West,260,0.0,0.0,42,0.00,,---,0.00,VWS V14.01,2013-10-25 07:06:00,
2013-10-25 00:11:00,54.7,32.6,29.97,West,260,0.0,0.0,43,0.00,,---,0.00,VWS V14.01,2013-10-25 07:11:00,
2013-10-25 00:16:00,54.0,32.0,29.97,West,260,0.0,0.0,43,0.00,,---,0.00,VWS V14.01,2013-10-25 07:16:00,
2013-10-25 00:21:00,54.1,32.2,29.97,West,260,0.0,0.0,43,0.00,,---,0.00,VWS V14.01,2013-10-25 07:21:00,
2013-10-25 00:26:00,54.0,32.0,29.97,West,260,0.0,0.0,43,0.00,,---,0.00,VWS V14.01,2013-10-25 07:26:00,
2013-10-25 00:31:00,53.8,31.8,29.97,SW,226,3.6,3.6,43,0.00,,---,0.00,VWS V14.01,2013-10-25 07:31:00,
2013-10-25 00:36:00,54.1,32.2,29.97,SW,218,0.0,0.0,43,0.00,,---,0.00,VWS V14.01,2013-10-25 07:36:00,
2013-10-25 00:41:00,54.5,32.5,29.97,SW,219,0.0,0.0,43,0.00,,---,0.00,VWS V14.01,2013-10-25 07:41:00,
2013-10-25 00:46:00,54.5,32.5,29.97,SW,219,0.0,0.0,43,0.00,,---,0.00,VWS V14.01,2013-10-25 07:46:00,
2013-10-25 00:51:00,53.6,31.7,29.97,SW,219,0.0,0.0,43,0.00,,---,0.00,VWS V14.01,2013-10-25 07:51:00,
2013-10-25 00:56:00,52.9,31.0,29.97,SW,219,0.0,0.0,43,0.00,,---,0.00,VWS V14.01,2013-10-25 07:56:00,
2013-10-25 01:01:00,52.5,30.7,29.97,SW,219,0.0,0.0,43,0.00,,---,0.00,VWS V14.01,2013-10-25 08:01:00,
2013-10-25 01:06:00,52.5,30.7,29.97,SW,219,0.0,0.0,43,0.00,,---,0.00,VWS V14.01,2013-10-25 08:06:00,
2013-10-25 01:11:00,52.9,31.0,29.97,SW,225,0.0,0.0,43,0.00,,---,0.00,VWS V14.01,2013-10-25 08:11:00,
2013-10-25 01:16:00,53.1,31.2,29.97,SW,225,0.0,0.0,43,0.00,,---,0.00,VWS V14.01,2013-10-25 08:16:00,
2013-10-25 01:21:00,53.2,31.3,29.97,SW,225,0.0,0.0,43,0.00,,---,0.00,VWS V14.01,2013-10-25 08:21:00,
2013-10-25 01:26:00,53.4,31.5,29.97,West,278,0.0,0.0,43,0.00,,---,0.00,VWS V14.01,2013-10-25 08:26:00,
2013-10-25 01:31:00,53.2,31.3,29.97,West,277,0.0,0.0,43,0.00,,---,0.00,VWS V14.01,2013-10-25 08:31:00,
2013-10-25 01:36:00,52.9,31.0,29.97,West,276,0.0,0.0,43,0.00,,---,0.00,VWS V14.01,2013-10-25 08:36:00,
2013-10-25 01:41:00,52.7,30.9,29.97,West,276,0.0,0.0,43,0.00,,---,0.00,VWS V14.01,2013-10-25 08:41:00,
2013-10-25 01:46:00,52.2,30.4,29.97,West,262,0.0,0.0,43,0.00,,---,0.00,VWS V14.01,2013-10-25 08:46:00,
2013-10-25 01:51:00,52.2,30.4,29.97,West,262,0.0,0.0,43,0.00,,---,0.00,VWS V14.01,2013-10-25 08:51:00,
2013-10-25 01:56:00,52.0,30.2,29.97,WSW,253,0.0,0.0,43,0.00,,---,0.00,VWS V14.01,2013-10-25 08:56:00,
2013-10-25 02:01:00,52.5,30.7,29.97,WSW,253,0.0,0.0,43,0.00,,---,0.00,VWS V14.01,2013-10-25 09:01:00,
2013-10-25 02:06:00,53.2,31.3,29.97,WSW,253,0.0,0.0,43,0.00,,---,0.00,VWS V14.01,2013-10-25 09:06:00,
2013-10-25 02:11:00,53.2,31.3,29.97,WSW,253,0.0,0.0,43,0.00,,---,0.00,VWS V14.01,2013-10-25 09:11:00,
2013-10-25 02:16:00,52.5,30.7,29.97,WSW,253,0.0,0.0,43,0.00,,---,0.00,VWS V14.01,2013-10-25 09:16:00,
2013-10-25 02:21:00,52.2,30.4,29.97,WSW,253,0.0,0.0,43,0.00,,---,0.00,VWS V14.01,2013-10-25 09:21:00,
2013-10-25 02:27:00,52.0,30.2,29.97,WSW,252,0.0,0.0,43,0.00,,---,0.00,VWS V14.01,2013-10-25 09:27:00,
2013-10-25 02:32:00,52.0,30.2,29.97,WSW,256,0.0,0.0,43,0.00,,---,0.00,VWS V14.01,2013-10-25 09:32:00,
2013-10-25 02:37:00,51.6,30.4,29.97,WSW,256,0.0,0.0,44,0.00,,---,0.00,VWS V14.01,2013-10-25 09:37:00,
2013-10-25 02:42:00,50.7,29.6,29.97,WSW,256,0.0,0.0,44,0.00,,---,0.00,VWS V14.01,2013-10-25 09:42:00,
2013-10-25 02:47:00,50.5,29.5,29.97,WSW,255,0.0,0.0,44,0.00,,---,0.00,VWS V14.01,2013-10-25 09:47:00,
2013-10-25 02:52:00,51.1,30.0,29.97,SW,219,0.0,0.0,44,0.00,,---,0.00,VWS V14.01,2013-10-25 09:52:00,
2013-10-25 02:57:00,51.6,30.4,29.97,SW,218,0.0,0.0,44,0.00,,---,0.00,VWS V14.01,2013-10-25 09:57:00,
2013-10-25 03:02:00,51.8,30.0,29.97,SW,218,0.0,0.0,43,0.00,,---,0.00,VWS V14.01,2013-10-25 10:02:00,
2013-10-25 03:07:00,50.5,29.5,29.97,SW,218,0.0,0.0,44,0.00,,---,0.00,VWS V14.01,2013-10-25 10:07:00,
2013-10-25 03:12:00,50.4,29.3,29.97,SW,218,0.0,0.0,44,0.00,,---,0.00,VWS V14.01,2013-10-25 10:12:00,
2013-10-25 03:17:00,51.1,30.0,29.97,SW,218,0.0,0.0,44,0.00,,---,0.00,VWS V14.01,2013-10-25 10:17:00,
2013-10-25 03:22:00,51.6,30.4,29.97,SW,218,0.0,0.0,44,0.00,,---,0.00,VWS V14.01,2013-10-25 10:22:00,
2013-10-25 03:27:00,51.8,30.0,29.97,SW,227,0.0,0.0,43,0.00,,---,0.00,VWS V14.01,2013-10-25 10:27:00,
2013-10-25 03:32:00,52.0,30.2,29.97,SW,227,0.0,0.0,43,0.00,,---,0.00,VWS V14.01,2013-10-25 10:32:00,
2013-10-25 03:37:00,51.8,30.0,29.97,SW,227,0.0,0.0,43,0.00,,---,0.00,VWS V14.01,2013-10-25 10:37:00,
2013-10-25 03:42:00,50.5,29.5,29.97,SW,228,0.0,0.0,44,0.00,,---,0.00,VWS V14.01,2013-10-25 10:42:00,
2013-10-25 03:47:00,49.6,28.6,29.97,SW,228,0.0,0.0,44,0.00,,---,0.00,VWS V14.01,2013-10-25 10:47:00,
2013-10-25 03:52:00,48.4,27.5,29.97,SW,228,0.0,0.0,44,0.00,,---,0.00,VWS V14.01,2013-10-25 10:52:00,
2013-10-25 03:57:00,48.0,27.2,29.97,SW,228,0.0,0.0,44,0.00,,---,0.00,VWS V14.01,2013-10-25 10:57:00,
2013-10-25 04:02:00,47.8,27.0,29.97,SW,228,0.0,0.0,44,0.00,,---,0.00,VWS V14.01,2013-10-25 11:02:00,
2013-10-25 04:07:00,47.8,27.0,29.97,SW,228,0.0,0.0,44,0.00,,---,0.00,VWS V14.01,2013-10-25 11:07:00,
2013-10-25 04:12:00,47.8,27.0,29.97,SW,228,0.0,0.0,44,0.00,,---,0.00,VWS V14.01,2013-10-25 11:12:00,
2013-10-25 04:17:00,48.4,27.5,29.97,SW,228,0.0,0.0,44,0.00,,---,0.00,VWS V14.01,2013-10-25 11:17:00,
2013-10-25 04:22:00,48.4,27.5,29.97,SW,228,0.0,0.0,44,0.00,,---,0.00,VWS V14.01,2013-10-25 11:22:00,
2013-10-25 04:27:00,48.6,27.6,29.97,SW,228,0.0,0.0,44,0.00,,---,0.00,VWS V14.01,2013-10-25 11:27:00,
2013-10-25 04:32:00,48.6,27.6,29.97,WSW,237,0.0,0.0,44,0.00,,---,0.00,VWS V14.01,2013-10-25 11:32:00,
2013-10-25 04:37:00,48.6,27.6,30.00,WSW,237,0.0,0.0,44,0.00,,---,0.00,VWS V14.01,2013-10-25 11:37:00,
2013-10-25 04:42:00,48.2,27.3,30.00,WSW,237,0.0,0.0,44,0.00,,---,0.00,VWS V14.01,2013-10-25 11:42:00,
2013-10-25 04:47:00,48.0,27.2,30.00,WSW,237,0.0,0.0,44,0.00,,---,0.00,VWS V14.01,2013-10-25 11:47:00,
2013-10-25 04:52:00,47.5,26.7,30.00,WSW,237,0.0,0.0,44,0.00,,---,0.00,VWS V14.01,2013-10-25 11:52:00,
2013-10-25 04:58:00,47.1,26.3,30.00,WSW,237,0.0,0.0,44,0.00,,---,0.00,VWS V14.01,2013-10-25 11:58:00,
2013-10-25 05:03:00,46.8,26.0,30.00,WSW,237,0.0,0.0,44,0.00,,---,0.00,VWS V14.01,2013-10-25 12:03:00,
2013-10-25 05:08:00,46.8,26.0,30.00,WSW,237,0.0,0.0,44,0.00,,---,0.00,VWS V14.01,2013-10-25 12:08:00,
2013-10-25 05:13:00,46.9,26.2,30.00,WSW,238,0.0,0.0,44,0.00,,---,0.00,VWS V14.01,2013-10-25 12:13:00,
2013-10-25 05:18:00,46.9,26.2,30.00,WSW,238,0.0,0.0,44,0.00,,---,0.00,VWS V14.01,2013-10-25 12:18:00,
2013-10-25 05:23:00,46.9,26.2,30.00,WSW,238,0.0,0.0,44,0.00,,---,0.00,VWS V14.01,2013-10-25 12:23:00,
2013-10-25 05:28:00,46.4,25.7,30.00,WSW,238,0.0,0.0,44,0.00,,---,0.00,VWS V14.01,2013-10-25 12:28:00,
2013-10-25 05:33:00,46.0,25.9,30.00,WSW,238,0.0,0.0,45,0.00,,---,0.00,VWS V14.01,2013-10-25 12:33:00,
2013-10-25 05:38:00,46.0,25.9,30.00,WSW,238,0.0,0.0,45,0.00,,---,0.00,VWS V14.01,2013-10-25 12:38:00,
2013-10-25 05:43:00,45.5,25.4,30.00,WSW,238,0.0,0.0,45,0.00,,---,0.00,VWS V14.01,2013-10-25 12:43:00,
2013-10-25 05:48:00,45.5,25.4,30.00,WSW,238,0.0,0.0,45,0.00,,---,0.00,VWS V14.01,2013-10-25 12:48:00,
2013-10-25 05:53:00,45.5,25.4,30.00,WSW,238,0.0,0.0,45,0.00,,---,0.00,VWS V14.01,2013-10-25 12:53:00,
2013-10-25 05:58:00,45.3,25.2,30.00,WSW,241,0.0,0.0,45,0.00,,---,0.00,VWS V14.01,2013-10-25 12:58:00,
2013-10-25 06:03:00,45.3,25.2,30.00,WSW,241,0.0,0.0,45,0.00,,---,0.00,VWS V14.01,2013-10-25 13:03:00,
2013-10-25 06:08:00,45.7,25.6,30.00,WSW,241,0.0,0.0,45,0.00,,---,0.00,VWS V14.01,2013-10-25 13:08:00,
2013-10-25 06:13:00,45.9,25.7,30.00,WSW,241,0.0,0.0,45,0.00,,---,0.00,VWS V14.01,2013-10-25 13:13:00,
2013-10-25 06:18:00,45.9,25.7,30.00,WSW,241,0.0,0.0,45,0.00,,---,0.00,VWS V14.01,2013-10-25 13:18:00,
2013-10-25 06:23:00,46.0,25.9,30.00,WSW,241,0.0,0.0,45,0.00,,---,0.00,VWS V14.01,2013-10-25 13:23:00,
2013-10-25 06:28:00,46.4,25.7,30.00,WSW,241,0.0,0.0,44,0.00,,---,0.00,VWS V14.01,2013-10-25 13:28:00,
2013-10-25 06:33:00,46.4,25.7,30.00,WSW,241,0.0,0.0,44,0.00,,---,0.00,VWS V14.01,2013-10-25 13:33:00,
2013-10-25 06:38:00,45.9,25.7,30.00,WSW,241,0.0,0.0,45,0.00,,---,0.00,VWS V14.01,2013-10-25 13:38:00,
2013-10-25 06:43:00,45.9,25.7,30.00,WSW,241,0.0,0.0,45,0.00,,---,0.00,VWS V14.01,2013-10-25 13:43:00,
2013-10-25 06:48:00,45.9,25.7,30.00,WSW,241,0.0,0.0,45,0.00,,---,0.00,VWS V14.01,2013-10-25 13:48:00,
2013-10-25 06:53:00,45.5,25.4,30.03,WSW,241,0.0,0.0,45,0.00,,---,0.00,VWS V14.01,2013-10-25 13:53:00,
2013-10-25 06:58:00,45.1,25.1,30.03,WSW,241,0.0,0.0,45,0.00,,---,0.00,VWS V14.01,2013-10-25 13:58:00,
2013-10-25 07:03:00,45.1,25.1,30.03,WSW,241,0.0,0.0,45,0.00,,---,0.00,VWS V14.01,2013-10-25 14:03:00,
2013-10-25 07:08:00,45.3,25.2,30.03,WSW,241,0.0,0.0,45,0.00,,---,0.00,VWS V14.01,2013-10-25 14:08:00,
2013-10-25 07:13:00,45.9,25.7,30.03,WSW,241,0.0,0.0,45,0.00,,---,0.00,VWS V14.01,2013-10-25 14:13:00,
2013-10-25 07:18:00,47.1,26.3,30.03,WSW,241,0.0,0.0,44,0.00,,---,0.00,VWS V14.01,2013-10-25 14:18:00,
2013-10-25 07:23:00,48.2,27.3,30.03,WSW,241,0.0,0.0,44,0.00,,---,0.00,VWS V14.01,2013-10-25 14:23:00,
2013-10-25 07:28:00,49.1,28.1,30.03,WSW,241,0.0,0.0,44,0.00,,---,0.00,VWS V14.01,2013-10-25 14:28:00,
2013-10-25 07:33:00,49.6,28.6,30.03,WSW,241,0.0,0.0,44,0.00,,---,0.00,VWS V14.01,2013-10-25 14:33:00,
2013-10-25 07:38:00,50.7,29.6,30.03,NW,319,0.0,0.0,44,0.00,,---,0.00,VWS V14.01,2013-10-25 14:38:00,
2013-10-25 07:43:00,51.6,30.4,30.03,NW,305,0.0,0.0,44,0.00,,---,0.00,VWS V14.01,2013-10-25 14:43:00,
2013-10-25 07:49:00,52.3,30.5,30.03,WNW,292,0.0,0.0,43,0.00,,---,0.00,VWS V14.01,2013-10-25 14:49:00,
2013-10-25 07:54:00,52.7,30.9,30.03,WNW,295,0.0,0.0,43,0.00,,---,0.00,VWS V14.01,2013-10-25 14:54:00,
2013-10-25 07:59:00,53.2,31.3,30.03,WNW,296,0.0,0.0,43,0.00,,---,0.00,VWS V14.01,2013-10-25 14:59:00,
2013-10-25 08:04:00,53.4,31.5,30.03,NW,304,5.4,5.4,43,0.00,,---,0.00,VWS V14.01,2013-10-25 15:04:00,
2013-10-25 08:09:00,53.8,31.8,30.03,NW,304,3.1,3.1,43,0.00,,---,0.00,VWS V14.01,2013-10-25 15:09:00,
2013-10-25 08:14:00,54.3,32.3,30.03,NW,312,0.0,0.0,43,0.00,,---,0.00,VWS V14.01,2013-10-25 15:14:00,
2013-10-25 08:19:00,55.0,33.0,30.03,NNW,333,0.0,0.0,43,0.00,,---,0.00,VWS V14.01,2013-10-25 15:19:00,
2013-10-25 08:24:00,55.8,33.0,30.03,WNW,291,0.0,0.0,42,0.00,,---,0.00,VWS V14.01,2013-10-25 15:24:00,
2013-10-25 08:29:00,56.3,33.5,30.03,NNW,329,0.0,0.0,42,0.00,,---,0.00,VWS V14.01,2013-10-25 15:29:00,
2013-10-25 08:34:00,56.5,33.7,30.03,NW,305,0.0,0.0,42,0.00,,---,0.00,VWS V14.01,2013-10-25 15:34:00,
2013-10-25 08:39:00,57.2,34.3,30.06,NW,319,0.0,0.0,42,0.00,,---,0.00,VWS V14.01,2013-10-25 15:39:00,
2013-10-25 08:44:00,57.6,34.7,30.06,NW,312,0.0,0.0,42,0.00,,---,0.00,VWS V14.01,2013-10-25 15:44:00,
2013-10-25 08:49:00,58.3,35.3,30.06,NW,308,0.0,0.0,42,0.00,,---,0.00,VWS V14.01,2013-10-25 15:49:00,
2013-10-25 08:54:00,58.6,35.6,30.06,WNW,295,0.0,0.0,42,0.00,,---,0.00,VWS V14.01,2013-10-25 15:54:00,
2013-10-25 08:59:00,59.0,36.0,30.06,WNW,303,2.7,3.1,42,0.00,,---,0.00,VWS V14.01,2013-10-25 15:59:00,
2013-10-25 09:04:00,59.4,36.3,30.06,NW,322,0.0,0.0,42,0.00,,---,0.00,VWS V14.01,2013-10-25 16:04:00,
2013-10-25 09:09:00,59.7,36.6,30.06,NW,325,0.0,0.0,42,0.00,,---,0.00,VWS V14.01,2013-10-25 16:09:00,
2013-10-25 09:14:00,60.3,37.1,30.06,NNW,340,0.0,0.0,42,0.00,,---,0.00,VWS V14.01,2013-10-25 16:14:00,
2013-10-25 09:19:00,60.6,37.4,30.06,North,0,0.0,0.0,42,0.00,,---,0.00,VWS V14.01,2013-10-25 16:19:00,
2013-10-25 09:24:00,60.8,37.0,30.06,North,0,0.0,0.0,41,0.00,,---,0.00,VWS V14.01,2013-10-25 16:24:00,
2013-10-25 09:29:00,61.5,37.6,30.06,North,0,0.0,0.0,41,0.00,,---,0.00,VWS V14.01,2013-10-25 16:29:00,
2013-10-25 09:34:00,62.1,38.1,30.06,North,357,0.0,0.0,41,0.00,,---,0.00,VWS V14.01,2013-10-25 16:34:00,
2013-10-25 09:39:00,62.6,38.6,30.06,North,357,0.0,0.0,41,0.00,,---,0.00,VWS V14.01,2013-10-25 16:39:00,
2013-10-25 09:44:00,63.1,39.1,30.06,NNW,346,0.0,0.0,41,0.00,,---,0.00,VWS V14.01,2013-10-25 16:44:00,
2013-10-25 09:49:00,64.0,39.9,30.06,North,353,0.0,0.0,41,0.00,,---,0.00,VWS V14.01,2013-10-25 16:49:00,
2013-10-25 09:54:00,64.2,40.0,30.06,North,353,0.0,0.0,41,0.00,,---,0.00,VWS V14.01,2013-10-25 16:54:00,
2013-10-25 09:59:00,64.4,39.6,30.03,North,353,0.0,0.0,40,0.00,,---,0.00,VWS V14.01,2013-10-25 16:59:00,
2013-10-25 10:04:00,64.9,40.1,30.03,North,353,0.0,0.0,40,0.00,,---,0.00,VWS V14.01,2013-10-25 17:04:00,
2013-10-25 10:09:00,65.5,40.5,30.03,North,353,0.0,0.0,40,0.00,,---,0.00,VWS V14.01,2013-10-25 17:09:00,
2013-10-25 10:14:00,65.7,40.7,30.03,NNW,341,0.0,0.0,40,0.00,,---,0.00,VWS V14.01,2013-10-25 17:14:00,
2013-10-25 10:19:00,66.2,41.2,30.03,NNW,340,0.0,0.0,40,0.00,,---,0.00,VWS V14.01,2013-10-25 17:19:00,
2013-10-25 10:24:00,66.7,41.7,30.03,NNW,340,0.0,0.0,40,0.00,,---,0.00,VWS V14.01,2013-10-25 17:24:00,
2013-10-25 10:30:00,67.1,42.0,30.03,NNW,340,0.0,0.0,40,0.00,,---,0.00,VWS V14.01,2013-10-25 17:30:00,
2013-10-25 10:35:00,67.5,42.3,30.03,NNW,339,0.0,0.0,40,0.00,,---,0.00,VWS V14.01,2013-10-25 17:35:00,
2013-10-25 10:40:00,67.8,42.6,30.03,NNW,345,0.0,0.0,40,0.00,,---,0.00,VWS V14.01,2013-10-25 17:40:00,
2013-10-25 10:45:00,68.4,43.1,30.03,North,0,0.0,0.0,40,0.00,,---,0.00,VWS V14.01,2013-10-25 17:45:00,
2013-10-25 10:50:00,68.7,43.5,30.03,ESE,110,0.0,0.0,40,0.00,,---,0.00,VWS V14.01,2013-10-25 17:50:00,
2013-10-25 10:55:00,68.7,43.5,30.03,SSE,158,0.0,0.0,40,0.00,,---,0.00,VWS V14.01,2013-10-25 17:55:00,
2013-10-25 11:00:00,69.3,43.9,30.03,SSE,153,0.0,0.0,40,0.00,,---,0.00,VWS V14.01,2013-10-25 18:00:00,
2013-10-25 11:05:00,69.8,43.8,30.03,SSE,154,0.0,0.0,39,0.00,,---,0.00,VWS V14.01,2013-10-25 18:05:00,
2013-10-25 11:10:00,70.5,44.4,30.03,East,83,0.0,0.0,39,0.00,,---,0.00,VWS V14.01,2013-10-25 18:10:00,
2013-10-25 11:15:00,70.9,44.7,30.03,East,99,0.0,0.0,39,0.00,,---,0.00,VWS V14.01,2013-10-25 18:15:00,
2013-10-25 11:20:00,71.4,45.2,30.03,ESE,105,0.0,0.0,39,0.00,,---,0.00,VWS V14.01,2013-10-25 18:20:00,
2013-10-25 11:25:00,72.0,45.7,30.03,East,101,0.0,0.0,39,0.00,,---,0.00,VWS V14.01,2013-10-25 18:25:00,
2013-10-25 11:30:00,72.3,46.0,30.03,East,97,0.0,0.0,39,0.00,,---,0.00,VWS V14.01,2013-10-25 18:30:00,
2013-10-25 11:35:00,72.7,46.3,30.03,East,88,0.0,0.0,39,0.00,,---,0.00,VWS V14.01,2013-10-25 18:35:00,
2013-10-25 11:40:00,72.7,46.3,30.03,NE,44,0.0,0.0,39,0.00,,---,0.00,VWS V14.01,2013-10-25 18:40:00,
2013-10-25 11:45:00,72.7,46.3,30.03,NNE,25,0.0,0.0,39,0.00,,---,0.00,VWS V14.01,2013-10-25 18:45:00,
2013-10-25 11:50:00,72.9,46.5,30.03,North,4,0.0,0.0,39,0.00,,---,0.00,VWS V14.01,2013-10-25 18:50:00,
2013-10-25 11:55:00,72.7,46.3,30.03,NE,43,0.0,0.0,39,0.00,,---,0.00,VWS V14.01,2013-10-25 18:55:00,
2013-10-25 12:00:00,73.4,46.3,30.03,NE,47,0.0,0.0,38,0.00,,---,0.00,VWS V14.01,2013-10-25 19:00:00,
2013-10-25 12:05:00,73.8,46.6,30.03,ENE,72,2.7,2.7,38,0.00,,---,0.00,VWS V14.01,2013-10-25 19:05:00,
2013-10-25 12:10:00,73.9,46.8,30.00,SSE,158,0.0,0.0,38,0.00,,---,0.00,VWS V14.01,2013-10-25 19:10:00,
2013-10-25 12:15:00,74.3,47.1,30.00,NE,38,5.8,5.8,38,0.00,,---,0.00,VWS V14.01,2013-10-25 19:15:00,
2013-10-25 12:20:00,74.7,47.4,30.00,NE,52,3.1,3.1,38,0.00,,---,0.00,VWS V14.01,2013-10-25 19:20:00,
2013-10-25 12:25:00,74.7,47.4,30.00,ESE,108,0.0,0.0,38,0.00,,---,0.00,VWS V14.01,2013-10-25 19:25:00,
2013-10-25 12:30:00,74.7,47.4,30.00,NE,45,0.0,0.0,38,0.00,,---,0.00,VWS V14.01,2013-10-25 19:30:00,
2013-10-25 12:36:00,74.8,47.6,30.00,ESE,116,0.0,0.0,38,0.00,,---,0.00,VWS V14.01,2013-10-25 19:36:00,
2013-10-25 12:41:00,75.0,47.7,30.00,North,3,0.0,0.0,38,0.00,,---,0.00,VWS V14.01,2013-10-25 19:41:00,
2013-10-25 12:46:00,75.6,48.2,30.00,NNE,30,5.4,5.4,38,0.00,,---,0.00,VWS V14.01,2013-10-25 19:46:00,
2013-10-25 12:51:00,76.1,48.7,30.00,NE,48,0.0,0.0,38,0.00,,---,0.00,VWS V14.01,2013-10-25 19:51:00,
2013-10-25 12:56:00,76.5,49.0,30.00,North,3,0.0,0.0,38,0.00,,---,0.00,VWS V14.01,2013-10-25 19:56:00,
2013-10-25 13:01:00,76.5,49.0,30.00,NE,35,0.0,0.0,38,0.00,,---,0.00,VWS V14.01,2013-10-25 20:01:00,
2013-10-25 13:06:00,76.1,48.7,30.00,WSW,254,2.7,2.7,38,0.00,,---,0.00,VWS V14.01,2013-10-25 20:06:00,
2013-10-25 13:11:00,75.9,48.5,29.97,NW,313,0.0,0.0,38,0.00,,---,0.00,VWS V14.01,2013-10-25 20:11:00,
2013-10-25 13:16:00,76.3,48.8,29.97,WNW,290,0.0,0.0,38,0.00,,---,0.00,VWS V14.01,2013-10-25 20:16:00,
2013-10-25 13:21:00,77.0,49.5,29.97,WNW,290,0.0,0.0,38,0.00,,---,0.00,VWS V14.01,2013-10-25 20:21:00,
2013-10-25 13:26:00,77.2,49.6,29.97,NNW,345,0.0,0.0,38,0.00,,---,0.00,VWS V14.01,2013-10-25 20:26:00,
2013-10-25 13:31:00,77.2,49.6,29.97,NE,36,3.6,3.6,38,0.00,,---,0.00,VWS V14.01,2013-10-25 20:31:00,
2013-10-25 13:36:00,77.5,50.0,29.97,NE,39,0.0,0.0,38,0.00,,---,0.00,VWS V14.01,2013-10-25 20:36:00,
2013-10-25 13:41:00,77.5,50.0,29.97,NE,44,0.0,0.0,38,0.00,,---,0.00,VWS V14.01,2013-10-25 20:41:00,
2013-10-25 13:46:00,77.5,50.0,29.97,North,0,0.0,0.0,38,0.00,,---,0.00,VWS V14.01,2013-10-25 20:46:00,
2013-10-25 13:51:00,78.1,50.4,29.97,North,0,0.0,0.0,38,0.00,,---,0.00,VWS V14.01,2013-10-25 20:51:00,
2013-10-25 13:56:00,78.1,50.4,29.97,NNE,12,0.0,0.0,38,0.00,,---,0.00,VWS V14.01,2013-10-25 20:56:00,
2013-10-25 14:01:00,78.3,50.6,29.97,NNW,348,0.0,0.0,38,0.00,,---,0.00,VWS V14.01,2013-10-25 21:01:00,
2013-10-25 14:06:00,78.3,50.6,29.97,North,353,0.0,0.0,38,0.00,,---,0.00,VWS V14.01,2013-10-25 21:06:00,
2013-10-25 14:11:00,78.1,50.4,29.97,NNE,23,0.0,0.0,38,0.00,,---,0.00,VWS V14.01,2013-10-25 21:11:00,
2013-10-25 14:16:00,78.3,50.6,29.97,NE,51,0.0,0.0,38,0.00,,---,0.00,VWS V14.01,2013-10-25 21:16:00,
2013-10-25 14:21:00,78.4,50.8,29.97,North,0,0.0,2.2,38,0.00,,---,0.00,VWS V14.01,2013-10-25 21:21:00,
2013-10-25 14:27:00,78.6,50.9,29.97,WSW,253,0.0,0.0,38,0.00,,---,0.00,VWS V14.01,2013-10-25 21:27:00,
2013-10-25 14:32:00,79.0,50.5,29.97,NW,307,0.0,0.0,37,0.00,,---,0.00,VWS V14.01,2013-10-25 21:32:00,
2013-10-25 14:37:00,79.3,50.8,29.97,SW,236,0.0,2.7,37,0.00,,---,0.00,VWS V14.01,2013-10-25 21:37:00,
2013-10-25 14:42:00,79.3,50.8,29.97,NE,56,0.0,0.0,37,0.00,,---,0.00,VWS V14.01,2013-10-25 21:42:00,
2013-10-25 14:47:00,79.5,51.0,29.97,NE,50,0.0,0.0,37,0.00,,---,0.00,VWS V14.01,2013-10-25 21:47:00,
2013-10-25 14:52:00,79.7,51.2,29.97,WSW,256,2.2,2.2,37,0.00,,---,0.00,VWS V14.01,2013-10-25 21:52:00,
2013-10-25 14:57:00,79.9,51.3,29.94,WSW,249,0.0,0.0,37,0.00,,---,0.00,VWS V14.01,2013-10-25 21:57:00,
2013-10-25 15:02:00,80.2,51.6,29.94,SW,219,0.0,0.0,37,0.00,,---,0.00,VWS V14.01,2013-10-25 22:02:00,
2013-10-25 15:07:00,80.4,51.8,29.94,SW,230,0.0,0.0,37,0.00,,---,0.00,VWS V14.01,2013-10-25 22:07:00,
2013-10-25 15:12:00,80.6,52.0,29.94,NNW,329,0.0,0.0,37,0.00,,---,0.00,VWS V14.01,2013-10-25 22:12:00,
2013-10-25 15:17:00,80.8,52.1,29.94,NW,320,0.0,0.0,37,0.00,,---,0.00,VWS V14.01,2013-10-25 22:17:00,
2013-10-25 15:22:00,81.0,52.3,29.94,SSW,203,0.0,0.0,37,0.00,,---,0.00,VWS V14.01,2013-10-25 22:22:00,
2013-10-25 15:27:00,81.0,52.3,29.94,West,267,0.0,0.0,37,0.00,,---,0.00,VWS V14.01,2013-10-25 22:27:00,
2013-10-25 15:32:00,80.4,51.8,29.94,SSW,199,0.0,0.0,37,0.00,,---,0.00,VWS V14.01,2013-10-25 22:32:00,
2013-10-25 15:37:00,80.2,51.6,29.94,SE,124,0.0,0.0,37,0.00,,---,0.00,VWS V14.01,2013-10-25 22:37:00,
2013-10-25 15:42:00,80.2,51.6,29.94,SSW,201,0.0,0.0,37,0.00,,---,0.00,VWS V14.01,2013-10-25 22:42:00,
2013-10-25 15:47:00,80.4,51.8,29.94,West,265,6.3,6.3,37,0.00,,---,0.00,VWS V14.01,2013-10-25 22:47:00,
2013-10-25 15:52:00,80.4,51.8,29.94,West,264,0.0,0.0,37,0.00,,---,0.00,VWS V14.01,2013-10-25 22:52:00,
2013-10-25 15:58:00,80.4,51.8,29.94,SW,229,0.0,0.0,37,0.00,,---,0.00,VWS V14.01,2013-10-25 22:58:00,
2013-10-25 16:03:00,80.4,51.8,29.94,SW,223,0.0,7.2,37,0.00,,---,0.00,VWS V14.01,2013-10-25 23:03:00,
2013-10-25 16:08:00,80.1,51.5,29.94,SW,224,3.6,4.0,37,0.00,,---,0.00,VWS V14.01,2013-10-25 23:08:00,
2013-10-25 16:13:00,79.2,50.7,29.94,SSW,209,0.0,0.0,37,0.00,,---,0.00,VWS V14.01,2013-10-25 23:13:00,
2013-10-25 16:18:00,79.2,50.7,29.94,WSW,256,5.4,5.4,37,0.00,,---,0.00,VWS V14.01,2013-10-25 23:18:00,
2013-10-25 16:23:00,79.2,50.7,29.94,WSW,240,0.0,4.9,37,0.00,,---,0.00,VWS V14.01,2013-10-25 23:23:00,
2013-10-25 16:28:00,78.8,50.4,29.94,WSW,250,3.6,3.6,37,0.00,,---,0.00,VWS V14.01,2013-10-25 23:28:00,
2013-10-25 16:33:00,77.9,50.3,29.94,SW,229,4.0,4.0,38,0.00,,---,0.00,VWS V14.01,2013-10-25 23:33:00,
2013-10-25 16:38:00,77.7,50.1,29.94,WSW,250,0.0,0.0,38,0.00,,---,0.00,VWS V14.01,2013-10-25 23:38:00,
2013-10-25 16:43:00,77.0,49.5,29.94,West,275,0.0,0.0,38,0.00,,---,0.00,VWS V14.01,2013-10-25 23:43:00,
2013-10-25 16:48:00,76.6,49.2,29.94,West,274,0.0,0.0,38,0.00,,---,0.00,VWS V14.01,2013-10-25 23:48:00,
2013-10-25 16:53:00,76.3,48.8,29.94,SW,216,5.4,5.4,38,0.00,,---,0.00,VWS V14.01,2013-10-25 23:53:00,
2013-10-25 16:58:00,76.3,48.8,29.94,SW,232,0.0,0.0,38,0.00,,---,0.00,VWS V14.01,2013-10-25 23:58:00,
2013-10-25 17:03:00,76.1,48.7,29.94,SW,226,0.0,0.0,38,0.00,,---,0.00,VWS V14.01,2013-10-26 00:03:00,
2013-10-25 17:08:00,75.9,48.5,29.94,SW,223,0.0,0.0,38,0.00,,---,0.00,VWS V14.01,2013-10-26 00:08:00,
2013-10-25 17:13:00,75.9,48.5,29.94,SW,228,0.0,2.2,38,0.00,,---,0.00,VWS V14.01,2013-10-26 00:13:00,
2013-10-25 17:18:00,73.0,46.6,29.94,SW,228,0.0,0.0,39,0.00,,---,0.00,VWS V14.01,2013-10-26 00:18:00,
2013-10-25 17:23:00,72.3,46.0,29.94,SSW,199,4.9,6.3,39,0.00,,---,0.00,VWS V14.01,2013-10-26 00:23:00,
2013-10-25 17:28:00,71.8,45.5,29.94,SW,221,0.0,0.0,39,0.00,,---,0.00,VWS V14.01,2013-10-26 00:28:00,
2013-10-25 17:34:00,71.4,45.2,29.94,SW,222,0.0,0.0,39,0.00,,---,0.00,VWS V14.01,2013-10-26 00:34:00,
2013-10-25 17:39:00,71.2,45.0,29.94,SW,232,3.6,3.6,39,0.00,,---,0.00,VWS V14.01,2013-10-26 00:39:00,
2013-10-25 17:44:00,71.2,45.0,29.94,SW,221,5.8,6.3,39,0.00,,---,0.00,VWS V14.01,2013-10-26 00:44:00,
2013-10-25 17:49:00,70.9,44.7,29.94,SW,226,5.8,5.8,39,0.00,,---,0.00,VWS V14.01,2013-10-26 00:49:00,
2013-10-25 17:54:00,70.9,44.7,29.94,SSW,212,4.0,5.8,39,0.00,,---,0.00,VWS V14.01,2013-10-26 00:54:00,
2013-10-25 17:59:00,70.9,44.7,29.94,SW,225,5.4,5.8,39,0.00,,---,0.00,VWS V14.01,2013-10-26 00:59:00,
2013-10-25 18:04:00,70.9,44.7,29.94,SW,221,3.6,4.0,39,0.00,,---,0.00,VWS V14.01,2013-10-26 01:04:00,
2013-10-25 18:09:00,71.2,45.0,29.94,SW,214,5.4,6.3,39,0.00,,---,0.00,VWS V14.01,2013-10-26 01:09:00,
2013-10-25 18:14:00,71.1,44.9,29.97,SW,226,4.9,4.9,39,0.00,,---,0.00,VWS V14.01,2013-10-26 01:14:00,
2013-10-25 18:19:00,70.9,44.7,29.97,SW,223,0.0,0.0,39,0.00,,---,0.00,VWS V14.01,2013-10-26 01:19:00,
2013-10-25 18:24:00,70.9,44.7,29.97,SW,221,5.4,5.4,39,0.00,,---,0.00,VWS V14.01,2013-10-26 01:24:00,
2013-10-25 18:29:00,70.3,44.2,29.97,SW,227,3.1,3.1,39,0.00,,---,0.00,VWS V14.01,2013-10-26 01:29:00,
2013-10-25 18:34:00,70.2,44.1,29.97,SW,218,4.0,4.0,39,0.00,,---,0.00,VWS V14.01,2013-10-26 01:34:00,
2013-10-25 18:39:00,70.2,44.1,29.97,SW,224,0.0,0.0,39,0.00,,---,0.00,VWS V14.01,2013-10-26 01:39:00,
2013-10-25 18:44:00,69.3,43.9,29.97,SW,235,0.0,0.0,40,0.00,,---,0.00,VWS V14.01,2013-10-26 01:44:00,
2013-10-25 18:49:00,68.5,43.3,29.97,WNW,283,0.0,0.0,40,0.00,,---,0.00,VWS V14.01,2013-10-26 01:49:00,
2013-10-25 18:54:00,67.8,42.6,29.97,WNW,284,0.0,0.0,40,0.00,,---,0.00,VWS V14.01,2013-10-26 01:54:00,
2013-10-25 19:00:00,67.3,42.2,29.97,WNW,284,0.0,0.0,40,0.00,,---,0.00,VWS V14.01,2013-10-26 02:00:00,
2013-10-25 19:05:00,66.7,41.7,29.97,WNW,284,0.0,0.0,40,0.00,,---,0.00,VWS V14.01,2013-10-26 02:05:00,
2013-10-25 19:10:00,66.0,41.0,29.97,WNW,284,0.0,0.0,40,0.00,,---,0.00,VWS V14.01,2013-10-26 02:10:00,
2013-10-25 19:15:00,65.5,40.5,29.97,WNW,283,0.0,0.0,40,0.00,,---,0.00,VWS V14.01,2013-10-26 02:15:00,
2013-10-25 19:20:00,65.3,40.4,29.97,West,278,0.0,0.0,40,0.00,,---,0.00,VWS V14.01,2013-10-26 02:20:00,
2013-10-25 19:25:00,65.7,40.7,29.97,West,278,0.0,0.0,40,0.00,,---,0.00,VWS V14.01,2013-10-26 02:25:00,
2013-10-25 19:30:00,65.8,40.9,29.97,NNE,28,0.0,0.0,40,0.00,,---,0.00,VWS V14.01,2013-10-26 02:30:00,
2013-10-25 19:35:00,65.8,40.9,29.97,North,7,0.0,0.0,40,0.00,,---,0.00,VWS V14.01,2013-10-26 02:35:00,
2013-10-25 19:40:00,66.2,41.2,30.00,North,7,0.0,0.0,40,0.00,,---,0.00,VWS V14.01,2013-10-26 02:40:00,
2013-10-25 19:45:00,65.7,40.7,30.00,North,7,0.0,0.0,40,0.00,,---,0.00,VWS V14.01,2013-10-26 02:45:00,
2013-10-25 19:50:00,65.3,40.4,30.00,North,7,0.0,0.0,40,0.00,,---,0.00,VWS V14.01,2013-10-26 02:50:00,
2013-10-25 19:55:00,64.6,39.7,30.00,North,7,0.0,0.0,40,0.00,,---,0.00,VWS V14.01,2013-10-26 02:55:00,
2013-10-25 20:01:00,64.4,39.6,30.00,North,9,0.0,0.0,40,0.00,,---,0.00,VWS V14.01,2013-10-26 03:01:00,
2013-10-25 20:06:00,64.0,39.9,30.00,North,9,0.0,0.0,41,0.00,,---,0.00,VWS V14.01,2013-10-26 03:06:00,
2013-10-25 20:11:00,64.0,39.9,30.00,North,9,0.0,0.0,41,0.00,,---,0.00,VWS V14.01,2013-10-26 03:11:00,
2013-10-25 20:16:00,64.0,39.9,30.00,North,9,0.0,0.0,41,0.00,,---,0.00,VWS V14.01,2013-10-26 03:16:00,
2013-10-25 20:21:00,64.4,39.6,30.00,North,9,0.0,0.0,40,0.00,,---,0.00,VWS V14.01,2013-10-26 03:21:00,
2013-10-25 20:26:00,64.8,39.9,30.00,North,9,0.0,0.0,40,0.00,,---,0.00,VWS V14.01,2013-10-26 03:26:00,
2013-10-25 20:31:00,64.8,39.9,30.00,North,9,0.0,0.0,40,0.00,,---,0.00,VWS V14.01,2013-10-26 03:31:00,
2013-10-25 20:36:00,64.8,39.9,30.00,North,9,0.0,0.0,40,0.00,,---,0.00,VWS V14.01,2013-10-26 03:36:00,
2013-10-25 20:41:00,63.9,39.7,30.03,SSE,161,0.0,0.0,41,0.00,,---,0.00,VWS V14.01,2013-10-26 03:41:00,
2013-10-25 20:46:00,63.1,39.1,30.03,South,169,0.0,0.0,41,0.00,,---,0.00,VWS V14.01,2013-10-26 03:46:00,
2013-10-25 20:51:00,63.1,39.1,30.03,South,172,0.0,0.0,41,0.00,,---,0.00,VWS V14.01,2013-10-26 03:51:00,
2013-10-25 20:56:00,63.5,39.4,30.03,SSE,165,0.0,0.0,41,0.00,,---,0.00,VWS V14.01,2013-10-26 03:56:00,
2013-10-25 21:01:00,63.5,39.4,30.03,SSE,168,0.0,0.0,41,0.00,,---,0.00,VWS V14.01,2013-10-26 04:01:00,
2013-10-25 21:02:00,63.5,39.4,30.03,SSE,168,0.0,0.0,41,0.00,,---,0.00,VWS V14.01,2013-10-26 04:02:00,
2013-10-25 21:06:00,63.5,39.4,30.03,SSE,168,0.0,0.0,41,0.00,,---,0.00,VWS V14.01,2013-10-26 04:06:00,
2013-10-25 21:11:00,62.8,38.8,30.03,SW,224,0.0,0.0,41,0.00,,---,0.00,VWS V14.01,2013-10-26 04:11:00,
2013-10-25 21:16:00,62.8,38.8,30.03,SW,226,0.0,0.0,41,0.00,,---,0.00,VWS V14.01,2013-10-26 04:16:00,
2013-10-25 21:21:00,63.1,39.1,30.03,SW,219,0.0,0.0,41,0.00,,---,0.00,VWS V14.01,2013-10-26 04:21:00,
2013-10-25 21:26:00,63.0,38.9,30.03,SSW,202,0.0,0.0,41,0.00,,---,0.00,VWS V14.01,2013-10-26 04:26:00,
2013-10-25 21:31:00,62.8,38.8,30.03,SSW,208,0.0,0.0,41,0.00,,---,0.00,VWS V14.01,2013-10-26 04:31:00,
2013-10-25 21:36:00,62.2,38.3,30.03,SW,224,0.0,0.0,41,0.00,,---,0.00,VWS V14.01,2013-10-26 04:36:00,
2013-10-25 21:41:00,62.2,38.3,30.03,SSW,210,0.0,0.0,41,0.00,,---,0.00,VWS V14.01,2013-10-26 04:41:00,
2013-10-25 21:46:00,62.1,38.1,30.03,SSW,205,0.0,0.0,41,0.00,,---,0.00,VWS V14.01,2013-10-26 04:46:00,
2013-10-25 21:51:00,62.1,38.1,30.03,South,184,0.0,0.0,41,0.00,,---,0.00,VWS V14.01,2013-10-26 04:51:00,
2013-10-25 21:56:00,62.1,38.1,30.03,South,174,0.0,0.0,41,0.00,,---,0.00,VWS V14.01,2013-10-26 04:56:00,
2013-10-25 22:02:00,62.1,38.1,30.03,South,176,0.0,0.0,41,0.00,,---,0.00,VWS V14.01,2013-10-26 05:02:00,
2013-10-25 22:07:00,62.1,38.1,30.03,South,176,0.0,0.0,41,0.00,,---,0.00,VWS V14.01,2013-10-26 05:07:00,
2013-10-25 22:12:00,62.1,38.1,30.03,South,176,0.0,0.0,41,0.00,,---,0.00,VWS V14.01,2013-10-26 05:12:00,
2013-10-25 22:17:00,62.1,38.1,30.03,South,176,0.0,0.0,41,0.00,,---,0.00,VWS V14.01,2013-10-26 05:17:00,
2013-10-25 22:22:00,61.9,38.0,30.03,South,176,0.0,0.0,41,0.00,,---,0.00,VWS V14.01,2013-10-26 05:22:00,
2013-10-25 22:27:00,61.7,37.8,30.03,South,177,0.0,0.0,41,0.00,,---,0.00,VWS V14.01,2013-10-26 05:27:00,
2013-10-25 22:32:00,61.2,37.3,30.03,South,182,0.0,0.0,41,0.00,,---,0.00,VWS V14.01,2013-10-26 05:32:00,
2013-10-25 22:37:00,61.0,37.1,30.03,SSW,210,0.0,0.0,41,0.00,,---,0.00,VWS V14.01,2013-10-26 05:37:00,
2013-10-25 22:42:00,60.6,37.4,30.03,SSW,210,0.0,0.0,42,0.00,,---,0.00,VWS V14.01,2013-10-26 05:42:00,
2013-10-25 22:47:00,60.4,37.3,30.03,SSW,211,0.0,0.0,42,0.00,,---,0.00,VWS V14.01,2013-10-26 05:47:00,
2013-10-25 22:52:00,60.4,37.3,30.03,SSW,212,0.0,0.0,42,0.00,,---,0.00,VWS V14.01,2013-10-26 05:52:00,
2013-10-25 22:57:00,60.4,37.3,30.03,SSW,212,0.0,0.0,42,0.00,,---,0.00,VWS V14.01,2013-10-26 05:57:00,
2013-10-25 23:02:00,60.4,37.3,30.03,SSW,212,0.0,0.0,42,0.00,,---,0.00,VWS V14.01,2013-10-26 06:02:00,
2013-10-25 23:07:00,59.5,36.5,30.03,SSW,210,0.0,0.0,42,0.00,,---,0.00,VWS V14.01,2013-10-26 06:07:00,
2013-10-25 23:12:00,59.0,36.0,30.03,SSW,210,0.0,0.0,42,0.00,,---,0.00,VWS V14.01,2013-10-26 06:12:00,
2013-10-25 23:17:00,59.0,36.0,30.03,SSW,210,0.0,0.0,42,0.00,,---,0.00,VWS V14.01,2013-10-26 06:17:00,
2013-10-25 23:23:00,59.5,36.5,30.03,SSW,210,0.0,0.0,42,0.00,,---,0.00,VWS V14.01,2013-10-26 06:23:00,
2013-10-25 23:28:00,59.4,36.3,30.03,SSW,210,0.0,0.0,42,0.00,,---,0.00,VWS V14.01,2013-10-26 06:28:00,
2013-10-25 23:33:00,59.4,36.3,30.03,SSW,210,0.0,0.0,42,0.00,,---,0.00,VWS V14.01,2013-10-26 06:33:00,
2013-10-25 23:38:00,57.9,35.0,30.03,SSW,210,0.0,0.0,42,0.00,,---,0.00,VWS V14.01,2013-10-26 06:38:00,
2013-10-25 23:43:00,57.7,34.8,30.03,SSW,210,0.0,0.0,42,0.00,,---,0.00,VWS V14.01,2013-10-26 06:43:00,
2013-10-25 23:48:00,57.7,34.8,30.03,SW,222,0.0,0.0,42,0.00,,---,0.00,VWS V14.01,2013-10-26 06:48:00,
2013-10-25 23:53:00,57.6,34.7,30.03,SW,222,0.0,0.0,42,0.00,,---,0.00,VWS V14.01,2013-10-26 06:53:00,
2013-10-25 23:58:00,57.6,34.7,30.03,SW,222,0.0,0.0,42,0.00,,---,0.00,VWS V14.01,2013-10-26 06:58:00,